Time;durP1;ratioP1;P1;durP2;ratioP2;P2;SDS_P1;SDS_P2;PMS_P1;PMS_P2;Temp;Humidity;BMP_temperature;BMP_pressure;BME280_temperature;BME280_humidity;BME280_pressure;Samples;Min_cycle;Max_cycle;Signal;HPM_P1;HPM_P2
2022/12/16 00:01:52;;;;;;;77.03;34.87;;;-1.00;99.90;;;;;;5020782;28;20436;-81
2022/12/16 00:04:42;;;;;;;72.87;34.00;;;-1.20;99.90;;;;;;5038705;28;20919;-81
2022/12/16 00:07:31;;;;;;;68.93;32.43;;;-1.20;99.90;;;;;;5025945;28;20712;-80
2022/12/16 00:10:19;;;;;;;71.37;33.87;;;-1.30;99.90;;;;;;5037480;28;20221;-81
2022/12/16 00:13:08;;;;;;;76.87;34.47;;;-1.40;99.90;;;;;;5020176;28;20221;-80
2022/12/16 00:16:00;;;;;;;70.77;33.47;;;-1.50;99.90;;;;;;5021702;28;20229;-81
2022/12/16 00:18:48;;;;;;;75.10;34.40;;;-1.40;99.90;;;;;;5034053;28;20367;-80
2022/12/16 00:21:39;;;;;;;72.40;33.50;;;-1.60;99.90;;;;;;5028222;28;20285;-80
2022/12/16 00:24:30;;;;;;;68.10;32.40;;;-1.50;99.90;;;;;;5059000;28;20290;-80
2022/12/16 00:27:18;;;;;;;70.27;34.33;;;-1.60;99.90;;;;;;5042777;28;20715;-80
2022/12/16 00:30:08;;;;;;;70.27;33.47;;;-1.70;99.90;;;;;;5057221;28;21272;-80
2022/12/16 00:32:59;;;;;;;78.23;36.13;;;-1.60;99.90;;;;;;5057811;28;20252;-80
2022/12/16 00:35:48;;;;;;;80.63;35.13;;;-1.30;99.90;;;;;;5057599;28;20224;-80
2022/12/16 00:38:39;;;;;;;81.60;34.80;;;-1.40;99.90;;;;;;5047253;28;20711;-80
2022/12/16 00:41:27;;;;;;;75.47;34.37;;;-1.30;99.90;;;;;;5049831;28;20224;-80
2022/12/16 00:44:16;;;;;;;80.97;36.00;;;-1.30;99.90;;;;;;5056352;28;20225;-84
2022/12/16 00:47:05;;;;;;;78.07;34.77;;;-1.30;99.90;;;;;;5054337;28;20216;-79
2022/12/16 00:49:55;;;;;;;76.93;35.03;;;-1.40;99.90;;;;;;5042276;28;20231;-82
2022/12/16 00:52:45;;;;;;;76.97;35.07;;;-1.40;99.90;;;;;;5043232;28;20225;-81
2022/12/16 00:55:33;;;;;;;79.93;34.33;;;-1.40;99.90;;;;;;5046918;28;20322;-79
2022/12/16 00:58:22;;;;;;;81.73;35.10;;;-1.40;99.90;;;;;;5046981;28;20321;-80
2022/12/16 01:01:11;;;;;;;77.53;34.63;;;-1.30;99.90;;;;;;5047504;28;20236;-80
2022/12/16 01:03:59;;;;;;;77.23;34.67;;;-1.30;99.90;;;;;;5056403;28;20220;-80
2022/12/16 01:06:50;;;;;;;76.30;33.60;;;-1.50;99.90;;;;;;5043324;28;20710;-80
2022/12/16 01:09:39;;;;;;;76.67;34.63;;;-1.60;99.90;;;;;;5048596;28;20227;-80
2022/12/16 01:12:28;;;;;;;81.53;35.20;;;-1.50;99.90;;;;;;5042772;28;20224;-82
2022/12/16 01:15:18;;;;;;;75.73;33.63;;;-1.60;99.90;;;;;;5041332;28;20216;-82
2022/12/16 01:18:07;;;;;;;74.43;33.97;;;-1.80;99.90;;;;;;5045939;28;20220;-82
2022/12/16 01:21:02;;;;;;;75.40;33.53;;;-1.70;99.90;;;;;;5061582;28;20224;-82
2022/12/16 01:23:52;;;;;;;74.03;32.67;;;-1.60;99.90;;;;;;5037303;28;20253;-85
2022/12/16 01:26:42;;;;;;;77.23;35.07;;;-1.70;99.90;;;;;;5024199;28;20213;-84
2022/12/16 01:29:31;;;;;;;73.57;35.03;;;-1.60;99.90;;;;;;5031498;28;20230;-83
2022/12/16 01:32:20;;;;;;;69.77;31.90;;;-1.40;99.90;;;;;;5039043;28;20212;-82
2022/12/16 01:35:09;;;;;;;71.80;30.87;;;-1.50;99.90;;;;;;5024633;28;20221;-82
2022/12/16 01:38:18;;;;;;;68.37;30.23;;;-1.70;99.90;;;;;;5023485;28;20224;-79
2022/12/16 01:41:09;;;;;;;70.30;32.27;;;-1.80;99.90;;;;;;5023056;28;20210;-79
2022/12/16 01:44:13;;;;;;;68.23;30.30;;;-1.60;99.90;;;;;;5024977;28;20216;-80
2022/12/16 01:47:05;;;;;;;73.43;30.07;;;-1.80;99.90;;;;;;5038509;28;20237;-82
2022/12/16 01:49:59;;;;;;;67.70;29.73;;;-1.80;99.90;;;;;;5022770;28;20232;-80
2022/12/16 01:52:51;;;;;;;69.23;28.23;;;-1.90;99.90;;;;;;5034429;28;20214;-80
2022/12/16 01:55:45;;;;;;;72.43;29.97;;;-2.00;99.90;;;;;;5035946;28;20236;-81
2022/12/16 01:58:38;;;;;;;69.20;28.90;;;-1.80;99.90;;;;;;5041448;28;20228;-79
2022/12/16 02:01:27;;;;;;;65.97;29.20;;;-1.90;99.90;;;;;;5039511;28;20221;-80
2022/12/16 02:04:16;;;;;;;74.47;30.83;;;-1.90;99.90;;;;;;5026541;28;20217;-79
2022/12/16 02:07:05;;;;;;;74.40;30.03;;;-1.80;99.90;;;;;;5023539;28;20774;-82
2022/12/16 02:09:54;;;;;;;80.17;30.30;;;-1.80;99.90;;;;;;5026708;28;20228;-79
2022/12/16 02:12:50;;;;;;;72.27;31.23;;;-1.80;99.90;;;;;;5038555;28;20739;-82
2022/12/16 02:15:44;;;;;;;78.87;31.50;;;-1.90;99.90;;;;;;5024515;28;20236;-81
2022/12/16 02:18:44;;;;;;;75.90;30.43;;;-1.90;99.90;;;;;;5037797;28;20225;-81
2022/12/16 02:21:56;;;;;;;77.53;30.67;;;-1.90;99.90;;;;;;5018720;28;20320;-83
2022/12/16 02:25:19;;;;;;;79.27;30.50;;;-1.70;99.90;;;;;;5024260;28;20596;-82
2022/12/16 02:28:12;;;;;;;71.97;29.17;;;-1.60;99.90;;;;;;5035982;28;20684;-81
2022/12/16 02:31:15;;;;;;;76.97;29.97;;;-1.80;99.90;;;;;;5035553;28;20220;-84
2022/12/16 02:34:19;;;;;;;77.70;30.87;;;-1.90;99.90;;;;;;5024100;28;20232;-82
2022/12/16 02:37:15;;;;;;;65.50;29.33;;;-1.70;99.90;;;;;;5030112;28;20221;-82
2022/12/16 02:40:11;;;;;;;72.57;28.50;;;-1.70;99.90;;;;;;5034332;28;20221;-82
2022/12/16 02:43:04;;;;;;;76.53;30.57;;;-1.90;99.90;;;;;;5034935;28;20214;-81
2022/12/16 02:45:53;;;;;;;74.30;30.30;;;-1.70;99.90;;;;;;5017132;28;20248;-82
2022/12/16 02:48:44;;;;;;;69.40;27.97;;;-1.60;99.90;;;;;;5032663;28;20237;-79
2022/12/16 02:51:35;;;;;;;85.47;31.53;;;-1.80;99.90;;;;;;5027158;28;20263;-78
2022/12/16 02:54:24;;;;;;;73.77;30.00;;;-1.90;99.90;;;;;;5031041;28;20226;-79
2022/12/16 02:57:26;;;;;;;72.57;27.30;;;-2.00;99.90;;;;;;5020575;28;20224;-79
2022/12/16 03:00:18;;;;;;;72.73;28.67;;;-2.00;99.90;;;;;;5021050;28;20228;-79
2022/12/16 03:03:12;;;;;;;76.20;30.07;;;-2.00;99.90;;;;;;5036415;28;20221;-79
2022/12/16 03:06:03;;;;;;;71.47;29.47;;;-1.90;99.90;;;;;;5027510;28;20222;-80
2022/12/16 03:08:57;;;;;;;71.77;28.03;;;-1.60;99.90;;;;;;5025193;28;20225;-79
2022/12/16 03:11:48;;;;;;;65.13;28.87;;;-1.80;99.90;;;;;;5034283;28;20240;-79
2022/12/16 03:14:41;;;;;;;67.33;28.33;;;-1.90;99.90;;;;;;5023115;28;20227;-79
2022/12/16 03:17:30;;;;;;;64.03;27.87;;;-2.10;99.90;;;;;;5040116;28;20236;-78
2022/12/16 03:20:23;;;;;;;77.43;29.87;;;-2.20;99.90;;;;;;5025669;28;20221;-80
2022/12/16 03:23:17;;;;;;;65.77;28.00;;;-2.20;99.90;;;;;;5040052;28;20239;-80
2022/12/16 03:26:09;;;;;;;70.27;28.00;;;-2.10;99.90;;;;;;5038602;28;20225;-80
2022/12/16 03:29:02;;;;;;;72.17;29.00;;;-2.00;99.90;;;;;;5042425;28;20227;-80
2022/12/16 03:31:57;;;;;;;72.63;28.00;;;-1.90;99.90;;;;;;5057810;28;20364;-80
2022/12/16 03:34:51;;;;;;;67.23;26.53;;;-2.00;99.90;;;;;;5048021;28;20698;-79
2022/12/16 03:37:43;;;;;;;68.17;29.20;;;-2.00;99.90;;;;;;5062024;28;20222;-79
2022/12/16 03:40:33;;;;;;;66.80;28.17;;;-1.90;99.90;;;;;;5052063;28;20223;-79
2022/12/16 03:43:24;;;;;;;70.90;28.73;;;-1.70;99.90;;;;;;5060572;28;20226;-79
2022/12/16 03:46:14;;;;;;;66.23;28.73;;;-1.70;99.90;;;;;;5063410;28;20220;-79
2022/12/16 03:49:03;;;;;;;72.83;30.63;;;-1.90;99.90;;;;;;5065224;28;20319;-80
2022/12/16 03:51:53;;;;;;;70.87;30.27;;;-2.00;99.90;;;;;;5057270;28;22598;-81
2022/12/16 03:54:41;;;;;;;72.37;30.80;;;-1.90;99.90;;;;;;5045287;28;20228;-81
2022/12/16 03:57:32;;;;;;;71.57;29.90;;;-1.90;99.90;;;;;;5048213;28;20228;-82
2022/12/16 04:00:21;;;;;;;70.83;30.37;;;-2.00;99.90;;;;;;5062543;28;20227;-80
2022/12/16 04:03:09;;;;;;;72.07;29.33;;;-2.20;99.90;;;;;;5060421;28;20244;-79
2022/12/16 04:05:58;;;;;;;70.97;28.87;;;-2.00;99.90;;;;;;5040519;28;20727;-81
2022/12/16 04:08:48;;;;;;;66.33;28.47;;;-2.10;99.90;;;;;;5058447;28;20239;-81
2022/12/16 04:24:23;;;;;;;68.00;26.87;;;-2.00;99.90;;;;;;5038215;28;20312;-77
2022/12/16 04:27:28;;;;;;;69.87;27.43;;;-1.90;99.90;;;;;;5038419;28;20229;-78
2022/12/16 04:30:20;;;;;;;75.83;29.63;;;-2.20;99.90;;;;;;5035751;28;20229;-78
